createdAt,value
2018-01-26T00:01:50.592Z,2.03
2018-01-26T00:04:17.522Z,2.40
2018-01-26T00:06:44.468Z,2.60
2018-01-26T00:09:11.409Z,1.63
2018-01-26T00:11:38.353Z,3.27
2018-01-26T00:14:06.077Z,2.17
2018-01-26T00:16:33.012Z,1.63
2018-01-26T00:18:59.955Z,1.77
2018-01-26T00:21:26.897Z,2.03
2018-01-26T00:23:53.853Z,1.97
2018-01-26T00:26:20.780Z,1.60
2018-01-26T00:28:47.729Z,1.40
2018-01-26T00:31:14.678Z,2.20
2018-01-26T00:33:41.611Z,2.83
2018-01-26T00:36:08.547Z,2.43
2018-01-26T00:38:35.495Z,1.87
2018-01-26T00:41:02.439Z,3.20
2018-01-26T00:43:29.382Z,3.30
2018-01-26T00:45:56.307Z,1.30
2018-01-26T00:48:23.253Z,2.63
2018-01-26T00:50:50.176Z,1.77
2018-01-26T00:53:17.126Z,1.67
2018-01-26T00:55:44.832Z,2.97
2018-01-26T00:58:11.852Z,1.87
2018-01-26T01:00:38.789Z,2.10
2018-01-26T01:03:06.644Z,1.73
2018-01-26T01:05:33.582Z,2.40
2018-01-26T01:08:00.543Z,1.40
2018-01-26T01:10:27.470Z,1.40
2018-01-26T01:12:54.408Z,1.77
2018-01-26T01:15:21.367Z,1.73
2018-01-26T01:17:48.316Z,1.60
2018-01-26T01:20:15.250Z,1.87
2018-01-26T01:22:42.967Z,1.53
2018-01-26T01:25:09.897Z,2.10
2018-01-26T01:27:36.845Z,1.70
2018-01-26T01:30:03.807Z,1.83
2018-01-26T01:32:30.754Z,2.87
2018-01-26T01:34:57.699Z,1.33
2018-01-26T01:37:24.636Z,1.93
2018-01-26T01:39:51.581Z,1.50
2018-01-26T01:42:18.529Z,2.03
2018-01-26T01:44:45.460Z,1.63
2018-01-26T01:47:12.550Z,1.20
2018-01-26T01:49:39.500Z,2.60
2018-01-26T01:52:06.433Z,2.10
2018-01-26T01:54:33.376Z,1.40
2018-01-26T01:57:00.315Z,1.37
2018-01-26T01:59:27.254Z,1.90
2018-01-26T02:01:54.212Z,2.10
2018-01-26T02:04:21.150Z,1.40
2018-01-26T02:06:48.866Z,1.93
2018-01-26T02:09:15.804Z,1.67
2018-01-26T02:11:42.744Z,1.97
2018-01-26T02:14:09.711Z,1.33
2018-01-26T02:16:36.632Z,2.13
2018-01-26T02:19:03.588Z,1.93
2018-01-26T02:21:30.549Z,1.13
2018-01-26T02:23:57.631Z,1.70
2018-01-26T02:26:24.572Z,2.57
2018-01-26T02:28:51.513Z,1.33
2018-01-26T02:31:18.599Z,1.57
2018-01-26T02:33:45.554Z,1.93
2018-01-26T02:36:12.493Z,1.67
2018-01-26T02:38:39.436Z,1.30
2018-01-26T02:41:06.377Z,1.83
2018-01-26T02:43:33.312Z,1.90
2018-01-26T02:46:00.236Z,1.13
2018-01-26T02:48:27.179Z,2.17
2018-01-26T02:50:54.900Z,2.23
2018-01-26T02:53:21.848Z,1.37
2018-01-26T02:55:48.778Z,1.63
2018-01-26T02:58:15.721Z,2.17
2018-01-26T03:00:44.712Z,1.13
2018-01-26T03:03:11.653Z,3.37
2018-01-26T03:05:38.588Z,1.33
2018-01-26T03:08:06.297Z,1.53
2018-01-26T03:10:33.248Z,1.20
2018-01-26T03:13:00.180Z,1.43
2018-01-26T03:15:27.126Z,2.53
2018-01-26T03:17:54.077Z,1.40
2018-01-26T03:20:21.016Z,1.67
2018-01-26T03:22:48.736Z,1.73
2018-01-26T03:25:15.679Z,1.87
2018-01-26T03:27:42.613Z,1.37
2018-01-26T03:30:09.696Z,1.97
2018-01-26T03:32:36.637Z,2.87
2018-01-26T03:35:03.588Z,1.73
2018-01-26T03:37:30.535Z,2.00
2018-01-26T03:39:57.478Z,1.90
2018-01-26T03:42:24.421Z,2.47
2018-01-26T03:44:51.370Z,1.53
2018-01-26T03:47:18.304Z,2.20
2018-01-26T03:49:45.257Z,1.67
2018-01-26T03:52:12.180Z,1.70
2018-01-26T03:54:39.988Z,1.43
2018-01-26T03:57:06.936Z,1.67
2018-01-26T03:59:33.876Z,1.90
2018-01-26T04:02:00.818Z,2.07
2018-01-26T04:04:27.757Z,1.73
2018-01-26T04:06:55.471Z,1.40
2018-01-26T04:09:22.405Z,2.53
2018-01-26T04:11:49.345Z,1.40
2018-01-26T04:14:16.308Z,3.80
2018-01-26T04:16:43.248Z,1.50
2018-01-26T04:19:10.192Z,1.97
2018-01-26T04:21:37.128Z,1.70
2018-01-26T04:24:04.079Z,1.77
2018-01-26T04:26:31.778Z,1.53
2018-01-26T04:28:58.900Z,1.90
2018-01-26T04:31:26.596Z,1.30
2018-01-26T04:33:53.537Z,1.70
2018-01-26T04:36:20.628Z,2.87
2018-01-26T04:38:47.565Z,1.90
2018-01-26T04:41:14.496Z,2.90
2018-01-26T04:43:41.432Z,2.20
2018-01-26T04:46:08.382Z,1.70
2018-01-26T04:48:35.325Z,3.87
2018-01-26T04:51:03.051Z,3.37
2018-01-26T04:53:29.987Z,1.50
2018-01-26T04:55:56.916Z,2.10
2018-01-26T05:11:06.836Z,2.23
2018-01-26T05:13:34.548Z,1.30
2018-01-26T05:16:01.488Z,1.97
2018-01-26T05:18:28.471Z,2.27
2018-01-26T05:20:55.364Z,2.53
2018-01-26T05:23:22.293Z,2.63
2018-01-26T05:25:49.237Z,2.57
2018-01-26T05:28:20.400Z,5.33
2018-01-26T05:30:48.101Z,2.13
2018-01-26T05:33:15.033Z,4.17
2018-01-26T05:35:42.120Z,3.27
2018-01-26T05:38:09.065Z,4.77
2018-01-26T05:40:36.012Z,4.20
2018-01-26T05:43:02.974Z,3.37
2018-01-26T05:45:29.908Z,4.07
2018-01-26T05:47:56.883Z,4.20
2018-01-26T05:50:23.823Z,2.93
2018-01-26T05:52:50.748Z,2.63
2018-01-26T05:55:17.694Z,2.90
2018-01-26T05:57:44.639Z,6.93
2018-01-26T06:00:11.577Z,3.50
2018-01-26T06:02:39.298Z,2.73
2018-01-26T06:05:06.246Z,2.67
2018-01-26T06:07:33.177Z,4.23
2018-01-26T06:20:13.391Z,4.53
2018-01-26T06:22:40.332Z,3.40
2018-01-26T06:25:08.080Z,7.10
2018-01-26T06:27:35.012Z,3.77
2018-01-26T06:35:55.183Z,10.10
2018-01-26T06:38:22.121Z,16.03
2018-01-26T06:40:49.089Z,13.30
2018-01-26T06:43:16.045Z,9.60
2018-01-26T06:45:42.990Z,6.90
2018-01-26T06:48:09.926Z,6.23
2018-01-26T06:50:36.874Z,5.47
2018-01-26T06:53:03.817Z,7.00
2018-01-26T06:55:30.754Z,5.67
2018-01-26T06:57:58.460Z,5.20
2018-01-26T07:00:25.402Z,5.03
2018-01-26T07:02:52.342Z,6.80
2018-01-26T07:05:19.273Z,6.80
2018-01-26T07:07:46.983Z,7.83
2018-01-26T07:10:13.929Z,3.90
2018-01-26T07:12:41.263Z,4.00
2018-01-26T07:15:08.962Z,6.30
2018-01-26T07:17:35.906Z,3.90
2018-01-26T07:20:02.846Z,4.13
2018-01-26T07:22:29.782Z,4.77
2018-01-26T07:24:57.486Z,4.03
2018-01-26T07:27:24.426Z,5.80
2018-01-26T07:29:51.366Z,7.73
2018-01-26T07:32:19.077Z,3.70
2018-01-26T07:34:46.027Z,4.70
2018-01-26T07:37:12.955Z,4.50
2018-01-26T07:39:39.898Z,4.37
2018-01-26T07:42:06.853Z,4.37
2018-01-26T07:44:33.787Z,3.00
2018-01-26T07:47:00.731Z,3.73
2018-01-26T07:49:27.683Z,2.73
2018-01-26T07:51:54.633Z,3.17
2018-01-26T07:54:21.592Z,4.20
2018-01-26T07:56:48.573Z,4.67
2018-01-26T07:59:15.514Z,7.37
2018-01-26T08:01:42.454Z,3.87
2018-01-26T08:04:09.780Z,4.07
2018-01-26T08:06:37.486Z,3.87
2018-01-26T08:09:04.439Z,3.30
2018-01-26T08:11:31.380Z,3.30
2018-01-26T08:13:58.315Z,5.80
2018-01-26T08:16:25.254Z,4.43
2018-01-26T08:18:52.203Z,4.73
2018-01-26T08:21:19.152Z,4.67
2018-01-26T08:23:46.091Z,4.93
2018-01-26T08:26:13.805Z,6.43
2018-01-26T08:28:40.749Z,3.10
2018-01-26T08:31:07.689Z,4.27
2018-01-26T08:33:34.642Z,3.67
2018-01-26T08:36:01.570Z,3.27
2018-01-26T08:38:29.293Z,3.60
2018-01-26T08:40:56.239Z,3.73
2018-01-26T08:43:23.184Z,3.40
2018-01-26T08:45:50.128Z,4.07
2018-01-26T08:48:17.053Z,3.43
2018-01-26T08:50:43.992Z,5.00
2018-01-26T08:53:10.945Z,3.47
2018-01-26T08:55:38.651Z,3.80
2018-01-26T08:58:05.619Z,4.47
2018-01-26T09:00:32.567Z,4.53
2018-01-26T09:02:59.905Z,5.23
2018-01-26T09:05:26.881Z,4.13
2018-01-26T09:07:53.817Z,4.47
2018-01-26T09:10:20.769Z,4.70
2018-01-26T09:12:47.706Z,4.27
2018-01-26T09:15:14.650Z,5.07
2018-01-26T09:17:41.598Z,4.33
2018-01-26T09:20:08.530Z,4.07
2018-01-26T09:22:35.476Z,5.10
2018-01-26T09:25:03.203Z,4.23
2018-01-26T09:27:30.139Z,4.30
2018-01-26T09:29:57.074Z,3.97
2018-01-26T09:32:24.025Z,3.20
2018-01-26T09:34:50.970Z,4.83
2018-01-26T09:37:17.915Z,3.30
2018-01-26T09:39:44.848Z,3.63
2018-01-26T09:42:11.786Z,3.23
2018-01-26T09:44:39.481Z,4.00
2018-01-26T09:47:06.432Z,4.33
2018-01-26T09:49:33.366Z,3.90
2018-01-26T09:52:00.301Z,3.97
2018-01-26T09:54:28.024Z,6.53
2018-01-26T09:56:54.977Z,4.67
2018-01-26T09:59:21.913Z,3.57
2018-01-26T10:01:48.864Z,3.70
2018-01-26T10:04:15.823Z,3.37
2018-01-26T10:06:42.769Z,5.47
2018-01-26T10:09:09.710Z,4.83
2018-01-26T10:11:36.655Z,3.00
2018-01-26T10:14:03.598Z,4.10
2018-01-26T10:16:30.539Z,4.17
2018-01-26T10:18:57.484Z,3.80
2018-01-26T10:21:24.411Z,3.40
2018-01-26T10:23:51.362Z,4.90
2018-01-26T10:26:18.316Z,3.10
2018-01-26T10:28:45.250Z,4.67
2018-01-26T10:31:12.190Z,3.23
2018-01-26T10:33:39.130Z,2.80
2018-01-26T10:36:06.075Z,3.33
2018-01-26T10:38:33.018Z,3.97
2018-01-26T10:40:59.963Z,4.40
2018-01-26T10:43:26.913Z,4.87
2018-01-26T10:45:53.878Z,4.87
2018-01-26T10:48:20.803Z,4.23
2018-01-26T10:50:47.763Z,4.47
2018-01-26T10:53:14.692Z,4.93
2018-01-26T10:55:41.632Z,2.87
2018-01-26T10:58:09.342Z,4.53
2018-01-26T11:00:36.305Z,4.77
2018-01-26T11:03:03.242Z,4.90
2018-01-26T11:05:30.187Z,3.70
2018-01-26T11:07:57.138Z,4.03
2018-01-26T11:10:24.107Z,3.10
2018-01-26T11:12:51.055Z,3.50
2018-01-26T11:15:18.015Z,4.53
2018-01-26T11:17:44.949Z,3.90
2018-01-26T11:20:11.915Z,3.30
2018-01-26T11:22:38.863Z,3.80
2018-01-26T11:25:05.798Z,4.40
2018-01-26T11:27:32.762Z,3.77
2018-01-26T11:29:59.709Z,3.33
2018-01-26T11:32:27.194Z,3.50
2018-01-26T11:34:54.146Z,3.57
2018-01-26T11:37:21.097Z,8.93
2018-01-26T11:39:48.055Z,14.07
2018-01-26T11:42:14.987Z,14.57
2018-01-26T11:44:41.933Z,17.33
2018-01-26T11:47:08.886Z,14.63
2018-01-26T11:52:08.316Z,14.97
2018-01-26T11:54:35.267Z,14.73
2018-01-26T11:57:02.224Z,13.40
2018-01-26T11:59:29.165Z,16.47
2018-01-26T12:01:56.121Z,15.93
2018-01-26T12:06:55.406Z,11.67
2018-01-26T12:09:22.340Z,10.27
2018-01-26T12:11:49.297Z,10.20
2018-01-26T12:14:16.245Z,11.97
2018-01-26T12:16:43.189Z,12.60
2018-01-26T12:19:10.161Z,10.07
2018-01-26T12:21:37.128Z,7.90
2018-01-26T12:24:04.121Z,8.97
2018-01-26T12:26:31.058Z,8.60
2018-01-26T12:28:57.991Z,9.77
2018-01-26T12:31:24.948Z,8.33
2018-01-26T12:33:51.880Z,11.17
2018-01-26T12:36:18.825Z,8.00
2018-01-26T12:38:45.761Z,8.50
2018-01-26T12:41:12.698Z,7.50
2018-01-26T12:43:39.634Z,10.53
2018-01-26T12:46:07.367Z,8.17
2018-01-26T12:48:34.487Z,11.53
2018-01-26T12:51:01.430Z,7.80
2018-01-26T12:53:28.366Z,12.37
2018-01-26T12:55:55.311Z,9.87
2018-01-26T12:58:23.027Z,8.83
2018-01-26T13:00:50.294Z,15.93
2018-01-26T13:03:17.245Z,12.70
2018-01-26T13:05:44.173Z,9.93
2018-01-26T13:08:11.883Z,8.13
2018-01-26T13:10:38.821Z,7.77
2018-01-26T13:13:05.771Z,9.17
2018-01-26T13:15:32.805Z,10.40
2018-01-26T13:17:59.752Z,9.90
2018-01-26T13:20:26.685Z,10.53
2018-01-26T13:22:53.646Z,10.10
2018-01-26T13:25:20.593Z,10.03
2018-01-26T13:27:47.546Z,9.03
2018-01-26T13:30:14.619Z,8.53
2018-01-26T13:32:41.566Z,11.67
2018-01-26T13:35:08.493Z,9.83
2018-01-26T13:37:35.425Z,9.67
2018-01-26T13:40:02.369Z,9.27
2018-01-26T13:42:29.308Z,9.13
2018-01-26T13:44:56.244Z,8.60
2018-01-26T13:47:23.180Z,7.70
2018-01-26T13:49:50.108Z,8.47
2018-01-26T13:52:17.052Z,10.27
2018-01-26T13:54:44.007Z,11.43
2018-01-26T13:57:10.933Z,9.63
2018-01-26T13:59:37.876Z,7.50
2018-01-26T14:02:04.821Z,9.23
2018-01-26T14:04:32.521Z,11.47
2018-01-26T14:06:59.452Z,5.23
2018-01-26T14:09:27.302Z,10.07
2018-01-26T14:11:54.996Z,9.67
2018-01-26T14:14:21.956Z,8.27
2018-01-26T14:16:48.896Z,12.30
2018-01-26T14:19:15.835Z,11.00
2018-01-26T14:21:42.776Z,8.57
2018-01-26T14:24:09.711Z,7.00
2018-01-26T14:26:36.640Z,10.63
2018-01-26T14:29:03.584Z,7.77
2018-01-26T14:31:30.546Z,9.50
2018-01-26T14:33:57.489Z,7.97
2018-01-26T14:36:24.433Z,10.90
2018-01-26T14:38:51.391Z,8.50
2018-01-26T14:41:18.349Z,11.93
2018-01-26T14:43:45.316Z,11.93
2018-01-26T14:46:13.343Z,7.83
2018-01-26T14:48:40.285Z,6.27
2018-01-26T14:51:07.235Z,8.03
2018-01-26T14:53:34.160Z,6.00
2018-01-26T14:56:01.101Z,6.80
2018-01-26T14:58:28.820Z,8.83
2018-01-26T15:00:55.930Z,8.07
2018-01-26T15:03:22.884Z,12.97
2018-01-26T15:05:49.826Z,9.87
2018-01-26T15:08:17.527Z,8.43
2018-01-26T15:10:44.464Z,11.93
2018-01-26T15:13:11.414Z,9.07
2018-01-26T15:15:40.356Z,10.20
2018-01-26T15:18:07.436Z,6.13
2018-01-26T15:20:35.145Z,9.77
2018-01-26T15:23:02.086Z,10.57
2018-01-26T15:25:29.164Z,9.33
2018-01-26T15:27:56.101Z,8.37
2018-01-26T15:30:23.039Z,8.20
2018-01-26T15:32:50.025Z,6.53
2018-01-26T15:35:16.960Z,8.80
2018-01-26T15:37:43.896Z,7.47
2018-01-26T15:40:10.985Z,7.63
2018-01-26T15:42:37.930Z,6.67
2018-01-26T15:45:04.857Z,9.53
2018-01-26T15:47:31.839Z,9.93
2018-01-26T15:49:58.725Z,6.53
2018-01-26T15:52:26.428Z,7.67
2018-01-26T15:54:53.368Z,9.23
2018-01-26T15:57:20.365Z,7.83
2018-01-26T15:59:47.309Z,8.20
2018-01-26T16:02:14.253Z,6.57
2018-01-26T16:04:41.189Z,5.63
2018-01-26T16:07:08.131Z,7.17
2018-01-26T16:09:35.065Z,7.63
2018-01-26T16:12:02.000Z,10.83
2018-01-26T16:14:28.958Z,5.97
2018-01-26T16:16:56.395Z,6.07
2018-01-26T16:19:23.317Z,6.07
2018-01-26T16:26:57.092Z,6.97
2018-01-26T16:29:24.800Z,9.77
2018-01-26T16:31:51.748Z,10.03
2018-01-26T16:49:35.379Z,10.10
2018-01-26T16:52:03.236Z,9.87
2018-01-26T16:54:30.943Z,9.17
2018-01-26T16:56:57.878Z,7.47
2018-01-26T16:59:24.823Z,6.37
2018-01-26T17:01:51.792Z,6.70
2018-01-26T17:04:18.725Z,10.10
2018-01-26T17:06:45.672Z,7.70
2018-01-26T17:09:12.619Z,6.30
2018-01-26T17:11:39.555Z,4.70
2018-01-26T17:14:07.412Z,7.37
2018-01-26T17:16:34.353Z,5.40
2018-01-26T17:19:01.296Z,7.00
2018-01-26T17:21:28.249Z,5.87
2018-01-26T17:23:55.196Z,6.63
2018-01-26T17:26:22.148Z,7.57
2018-01-26T17:28:49.092Z,4.83
2018-01-26T17:31:16.035Z,7.37
2018-01-26T17:33:42.973Z,4.87
2018-01-26T17:36:09.915Z,6.00
2018-01-26T17:38:36.864Z,8.57
2018-01-26T17:41:03.822Z,4.53
2018-01-26T17:43:30.788Z,4.63
2018-01-26T17:45:57.715Z,7.43
2018-01-26T17:48:24.667Z,4.40
2018-01-26T17:50:51.601Z,5.57
2018-01-26T17:53:18.552Z,4.67
2018-01-26T17:55:45.497Z,4.90
2018-01-26T17:58:13.214Z,4.60
2018-01-26T18:00:40.172Z,5.33
2018-01-26T18:03:07.105Z,4.70
2018-01-26T18:05:34.064Z,3.93
2018-01-26T18:08:01.020Z,6.73
2018-01-26T18:13:04.165Z,5.10
2018-01-26T18:15:31.869Z,6.70
2018-01-26T18:17:58.802Z,2.80
2018-01-26T18:20:25.745Z,5.40
2018-01-26T18:22:52.833Z,5.57
2018-01-26T18:25:19.768Z,4.90
2018-01-26T18:27:46.713Z,3.23
2018-01-26T18:30:13.657Z,6.43
2018-01-26T18:32:40.610Z,4.20
2018-01-26T18:35:07.695Z,4.60
2018-01-26T18:37:34.638Z,5.13
2018-01-26T18:40:01.568Z,6.50
2018-01-26T18:42:28.503Z,5.27
2018-01-26T18:44:56.213Z,3.90
2018-01-26T18:47:23.144Z,5.33
2018-01-26T18:49:50.089Z,5.13
2018-01-26T18:52:17.039Z,4.90
2018-01-26T18:54:43.979Z,5.10
2018-01-26T18:57:10.912Z,5.83
2018-01-26T18:59:38.614Z,4.17
2018-01-26T19:02:05.548Z,3.83
2018-01-26T19:04:32.627Z,5.00
2018-01-26T19:06:59.573Z,4.67
2018-01-26T19:09:26.518Z,4.20
2018-01-26T19:11:53.448Z,4.10
2018-01-26T19:14:20.398Z,4.43
2018-01-26T19:16:48.248Z,4.10
2018-01-26T19:19:15.194Z,5.90
2018-01-26T19:21:42.139Z,4.13
2018-01-26T19:24:09.076Z,3.13
2018-01-26T19:26:36.025Z,5.57
2018-01-26T19:29:03.276Z,5.57
2018-01-26T19:31:30.200Z,4.13
2018-01-26T19:33:57.136Z,3.93
2018-01-26T19:36:24.360Z,3.83
2018-01-26T19:38:51.329Z,5.17
2018-01-26T19:41:19.049Z,4.20
2018-01-26T19:43:45.980Z,3.80
2018-01-26T19:46:12.916Z,4.60
2018-01-26T19:48:39.865Z,4.97
2018-01-26T19:51:07.566Z,5.17
2018-01-26T19:53:35.334Z,4.47
2018-01-26T19:56:02.260Z,5.90
2018-01-26T19:58:29.206Z,6.53
2018-01-26T20:00:56.144Z,4.97
2018-01-26T20:03:23.862Z,4.63
2018-01-26T20:05:50.803Z,5.67
2018-01-26T20:08:17.733Z,4.80
2018-01-26T20:10:44.673Z,3.70
2018-01-26T20:13:11.616Z,5.73
2018-01-26T20:15:38.563Z,4.80
2018-01-26T20:18:06.267Z,5.43
2018-01-26T20:20:33.209Z,5.30
2018-01-26T20:23:00.154Z,6.70
2018-01-26T20:25:27.096Z,5.53
2018-01-26T20:27:54.040Z,4.57
2018-01-26T20:30:20.982Z,6.77
2018-01-26T20:32:47.932Z,5.03
2018-01-26T20:35:15.647Z,4.30
2018-01-26T20:37:42.576Z,6.27
2018-01-26T20:40:09.523Z,6.50
2018-01-26T20:42:36.468Z,5.83
2018-01-26T20:45:03.404Z,4.83
2018-01-26T20:47:31.117Z,6.03
2018-01-26T20:49:58.062Z,6.73
2018-01-26T20:52:25.013Z,6.77
2018-01-26T20:54:51.954Z,5.10
2018-01-26T20:57:18.892Z,5.93
2018-01-26T20:59:45.830Z,4.43
2018-01-26T21:02:12.778Z,7.10
2018-01-26T21:04:39.729Z,5.40
2018-01-26T21:07:06.669Z,5.27
2018-01-26T21:09:33.664Z,5.57
2018-01-26T21:12:00.599Z,6.37
2018-01-26T21:14:27.534Z,6.47
2018-01-26T21:16:54.473Z,5.43
2018-01-26T21:19:22.190Z,4.80
2018-01-26T21:21:49.156Z,5.73
2018-01-26T21:24:16.095Z,6.03
2018-01-26T21:26:43.028Z,6.47
2018-01-26T21:29:09.960Z,7.17
2018-01-26T21:31:36.914Z,5.70
2018-01-26T21:34:03.848Z,6.60
2018-01-26T21:36:30.793Z,6.27
2018-01-26T21:38:58.513Z,6.47
2018-01-26T21:41:25.432Z,6.17
2018-01-26T21:43:52.378Z,6.43
2018-01-26T21:46:19.321Z,5.13
2018-01-26T21:48:46.265Z,7.60
2018-01-26T21:51:13.216Z,5.97
2018-01-26T21:53:40.167Z,4.90
2018-01-26T21:56:07.108Z,6.93
2018-01-26T21:58:34.813Z,5.20
2018-01-26T22:01:01.761Z,6.60
2018-01-26T22:03:28.706Z,5.10
2018-01-26T22:05:55.679Z,6.87
2018-01-26T22:10:56.286Z,6.57
2018-01-26T22:13:23.983Z,6.13
2018-01-26T22:15:50.924Z,4.97
2018-01-26T22:18:17.878Z,5.53
2018-01-26T22:20:44.826Z,7.30
2018-01-26T22:23:11.772Z,5.23
2018-01-26T22:25:38.762Z,6.43
2018-01-26T22:28:05.708Z,6.00
2018-01-26T22:30:32.664Z,6.27
2018-01-26T22:32:59.616Z,6.80
2018-01-26T22:35:26.592Z,5.40
2018-01-26T22:37:53.538Z,6.47
2018-01-26T22:40:20.491Z,5.97
2018-01-26T22:42:47.423Z,6.53
2018-01-26T22:45:14.372Z,5.93
2018-01-26T22:47:41.307Z,5.67
2018-01-26T22:50:08.271Z,8.10
2018-01-26T22:52:35.213Z,6.50
2018-01-26T22:55:02.171Z,5.57
2018-01-26T22:57:29.122Z,6.30
2018-01-26T22:59:56.060Z,5.70
2018-01-26T23:02:23.008Z,5.83
2018-01-26T23:04:49.985Z,6.33
2018-01-26T23:07:16.929Z,6.43
2018-01-26T23:09:44.259Z,6.97
2018-01-26T23:12:11.209Z,6.70
2018-01-26T23:14:38.144Z,5.73
2018-01-26T23:17:05.090Z,6.00
2018-01-26T23:19:32.032Z,7.27
2018-01-26T23:21:59.745Z,6.00
2018-01-26T23:24:26.684Z,6.43
2018-01-26T23:26:53.624Z,6.13
2018-01-26T23:29:20.567Z,7.03
2018-01-26T23:31:47.516Z,7.10
2018-01-26T23:34:14.458Z,6.57
2018-01-26T23:36:41.409Z,7.67
2018-01-26T23:39:08.343Z,5.43
2018-01-26T23:41:36.065Z,5.70
2018-01-26T23:44:03.013Z,6.40
2018-01-26T23:46:32.985Z,6.67
2018-01-26T23:49:00.689Z,5.90
2018-01-26T23:51:27.636Z,5.97
2018-01-26T23:53:54.588Z,7.23
2018-01-26T23:56:21.521Z,5.97
2018-01-26T23:58:48.470Z,6.17
